Time;durP1;ratioP1;P1;durP2;ratioP2;P2;SDS_P1;SDS_P2;PMS_P1;PMS_P2;Temp;Humidity;BMP_temperature;BMP_pressure;BME280_temperature;BME280_humidity;BME280_pressure;Samples;Min_cycle;Max_cycle;Signal;HPM_P1;HPM_P2
2023/03/11 00:02:06;;;;;;;;;;;4.00;99.90;;;;;;5091015;28;19946;-69
2023/03/11 00:04:31;;;;;;;;;;;4.00;99.90;;;;;;5102285;28;19981;-69
2023/03/11 00:06:57;;;;;;;;;;;4.00;99.90;;;;;;5089719;28;19919;-69
2023/03/11 00:09:22;;;;;;;;;;;4.00;99.90;;;;;;5079966;28;20009;-69
2023/03/11 00:11:48;;;;;;;;;;;4.00;99.90;;;;;;5081513;28;19920;-69
2023/03/11 00:14:14;;;;;;;;;;;4.00;99.90;;;;;;5070198;28;19920;-69
2023/03/11 00:16:39;;;;;;;;;;;4.00;99.90;;;;;;5070387;28;19934;-69
2023/03/11 00:19:05;;;;;;;;;;;4.00;99.90;;;;;;5117253;27;19920;-69
2023/03/11 00:21:30;;;;;;;;;;;4.00;99.90;;;;;;5089912;28;19912;-69
2023/03/11 00:23:59;;;;;;;;;;;4.00;99.90;;;;;;5102772;28;19912;-69
2023/03/11 00:26:25;;;;;;;;;;;4.00;99.90;;;;;;5110812;28;20026;-70
2023/03/11 00:28:51;;;;;;;;;;;3.90;99.90;;;;;;5111116;27;20026;-69
2023/03/11 00:31:17;;;;;;;;;;;4.00;99.90;;;;;;5110789;28;19952;-69
2023/03/11 00:33:43;;;;;;;;;;;3.90;99.90;;;;;;5110202;28;19960;-69
2023/03/11 00:36:19;;;;;;;;;;;4.00;99.90;;;;;;5110899;28;19916;-69
2023/03/11 00:38:45;;;;;;;;;;;3.90;99.90;;;;;;5106703;28;19912;-69
2023/03/11 00:41:10;;;;;;;;;;;3.90;99.90;;;;;;5086660;28;19912;-69
2023/03/11 00:43:36;;;;;;;;;;;3.90;99.90;;;;;;5069922;28;20269;-69
2023/03/11 00:46:03;;;;;;;;;;;3.90;99.90;;;;;;5077205;28;19912;-68
2023/03/11 00:48:29;;;;;;;;;;;3.90;99.90;;;;;;5101049;28;19969;-69
2023/03/11 00:50:54;;;;;;;;;;;3.90;99.90;;;;;;5089984;28;19912;-69
2023/03/11 00:53:20;;;;;;;;;;;3.90;99.90;;;;;;5096958;28;19912;-69
2023/03/11 00:55:45;;;;;;;;;;;3.90;99.90;;;;;;5109105;28;19911;-68
2023/03/11 00:58:11;;;;;;;;;;;3.90;99.90;;;;;;5110639;28;19918;-68
2023/03/11 01:00:37;;;;;;;;;;;3.90;99.90;;;;;;5110051;28;20007;-68
2023/03/11 01:03:02;;;;;;;;;;;3.90;99.90;;;;;;5110507;28;20002;-68
2023/03/11 01:05:29;;;;;;;;;;;3.90;99.90;;;;;;5109995;28;20301;-69
2023/03/11 01:07:55;;;;;;;;;;;3.90;99.90;;;;;;5110362;28;19915;-68
2023/03/11 01:10:20;;;;;;;;;;;3.90;99.90;;;;;;5092138;28;20530;-68
2023/03/11 01:12:46;;;;;;;;;;;3.90;99.90;;;;;;5072394;28;20251;-68
2023/03/11 01:15:20;;;;;;;;;;;3.90;99.90;;;;;;5101735;28;19908;-68
2023/03/11 01:17:45;;;;;;;;;;;3.80;99.90;;;;;;5095636;28;19930;-68
2023/03/11 01:20:11;;;;;;;;;;;3.80;99.90;;;;;;5095248;28;19936;-68
2023/03/11 01:22:37;;;;;;;;;;;3.80;99.90;;;;;;5090521;28;19912;-68
2023/03/11 01:25:02;;;;;;;;;;;3.80;99.90;;;;;;5109561;28;19912;-69
2023/03/11 01:27:28;;;;;;;;;;;3.80;99.90;;;;;;5109929;28;19911;-70
2023/03/11 01:29:53;;;;;;;;;;;3.80;99.90;;;;;;5109819;28;19919;-69
2023/03/11 01:32:19;;;;;;;;;;;3.80;99.90;;;;;;5110107;28;19915;-70
2023/03/11 01:34:44;;;;;;;;;;;3.80;99.90;;;;;;5108551;28;19981;-68
2023/03/11 01:37:10;;;;;;;;;;;3.80;99.90;;;;;;5109749;28;19908;-68
2023/03/11 01:39:35;;;;;;;;;;;3.80;99.90;;;;;;5097926;28;19912;-68
2023/03/11 01:42:01;;;;;;;;;;;3.80;99.90;;;;;;5078170;28;19923;-68
2023/03/11 01:44:26;;;;;;;;;;;3.80;99.90;;;;;;5068848;28;19912;-68
2023/03/11 01:46:52;;;;;;;;;;;3.80;99.90;;;;;;5069068;28;20238;-69
2023/03/11 01:49:18;;;;;;;;;;;3.80;99.90;;;;;;5068836;28;20007;-68
2023/03/11 01:51:47;;;;;;;;;;;3.80;99.90;;;;;;5101044;28;19921;-68
2023/03/11 01:54:18;;;;;;;;;;;3.80;99.90;;;;;;5109105;28;19920;-68
2023/03/11 01:56:44;;;;;;;;;;;3.80;99.90;;;;;;5109081;28;20344;-68
2023/03/11 01:59:11;;;;;;;;;;;3.80;99.90;;;;;;5108123;28;19912;-68
2023/03/11 02:01:39;;;;;;;;;;;3.80;99.90;;;;;;5109008;28;19982;-68
2023/03/11 02:04:04;;;;;;;;;;;3.80;99.90;;;;;;5109018;28;20010;-68
2023/03/11 02:06:30;;;;;;;;;;;3.80;99.90;;;;;;5105602;28;20006;-68
2023/03/11 02:08:56;;;;;;;;;;;3.80;99.90;;;;;;5092010;28;19963;-68
2023/03/11 02:11:23;;;;;;;;;;;3.70;99.90;;;;;;5082920;28;19948;-68
2023/03/11 02:13:50;;;;;;;;;;;3.70;99.90;;;;;;5067428;28;19985;-68
2023/03/11 02:16:15;;;;;;;;;;;3.70;99.90;;;;;;5068415;28;19913;-68
2023/03/11 02:18:41;;;;;;;;;;;3.70;99.90;;;;;;5068012;28;20027;-68
2023/03/11 02:21:14;;;;;;;;;;;3.70;99.90;;;;;;5086649;28;19912;-68
2023/03/11 02:23:49;;;;;;;;;;;3.70;99.90;;;;;;5101142;28;20341;-68
2023/03/11 02:26:33;;;;;;;;;;;3.70;99.90;;;;;;5107263;28;19937;-68
2023/03/11 02:29:00;;;;;;;;;;;3.70;99.90;;;;;;5108835;28;20035;-68
2023/03/11 02:31:27;;;;;;;;;;;3.70;99.90;;;;;;5108605;27;19918;-69
2023/03/11 02:33:53;;;;;;;;;;;3.70;99.90;;;;;;5089542;28;19912;-68
2023/03/11 02:36:38;;;;;;;;;;;3.70;99.90;;;;;;5088273;28;19912;-68
2023/03/11 02:39:04;;;;;;;;;;;3.70;99.90;;;;;;5089446;28;19922;-68
2023/03/11 02:41:30;;;;;;;;;;;3.60;99.90;;;;;;5082595;28;19916;-68
2023/03/11 02:43:56;;;;;;;;;;;3.60;99.90;;;;;;5067830;28;20011;-69
2023/03/11 02:46:22;;;;;;;;;;;3.70;99.90;;;;;;5067818;28;20015;-68
2023/03/11 02:48:47;;;;;;;;;;;3.60;99.90;;;;;;5074450;28;19926;-68
2023/03/11 02:51:13;;;;;;;;;;;3.60;99.90;;;;;;5079418;28;19912;-68
2023/03/11 02:53:42;;;;;;;;;;;3.60;99.90;;;;;;5086749;28;19912;-69
2023/03/11 02:56:07;;;;;;;;;;;3.60;99.90;;;;;;5107700;28;19951;-69
2023/03/11 02:58:33;;;;;;;;;;;3.50;99.90;;;;;;5108102;28;20076;-69
2023/03/11 03:00:58;;;;;;;;;;;3.60;99.90;;;;;;5108272;28;20011;-69
2023/03/11 03:03:24;;;;;;;;;;;3.50;99.90;;;;;;5106626;28;20064;-69
2023/03/11 03:05:49;;;;;;;;;;;3.60;99.90;;;;;;5108120;28;19911;-69
2023/03/11 03:08:15;;;;;;;;;;;3.50;99.90;;;;;;5106439;28;19931;-69
2023/03/11 03:10:41;;;;;;;;;;;3.50;99.90;;;;;;5107935;28;20343;-68
2023/03/11 03:13:06;;;;;;;;;;;3.50;99.90;;;;;;5100931;28;19976;-69
2023/03/11 03:15:32;;;;;;;;;;;3.50;99.90;;;;;;5107907;28;19912;-69
2023/03/11 03:17:57;;;;;;;;;;;3.50;99.90;;;;;;5107835;28;19919;-69
2023/03/11 03:20:23;;;;;;;;;;;3.50;99.90;;;;;;5091896;28;20417;-68
2023/03/11 03:22:49;;;;;;;;;;;3.50;99.90;;;;;;5089861;28;19912;-69
2023/03/11 03:25:14;;;;;;;;;;;3.50;99.90;;;;;;5108526;28;19951;-69
2023/03/11 03:27:40;;;;;;;;;;;3.50;99.90;;;;;;5112133;28;20276;-69
2023/03/11 03:30:07;;;;;;;;;;;3.50;99.90;;;;;;5095193;28;19923;-68
2023/03/11 03:32:33;;;;;;;;;;;3.50;99.90;;;;;;5091929;28;19912;-69
2023/03/11 03:34:59;;;;;;;;;;;3.40;99.90;;;;;;5091381;28;19912;-69
2023/03/11 03:37:26;;;;;;;;;;;3.50;99.90;;;;;;5091812;28;19912;-68
2023/03/11 03:39:51;;;;;;;;;;;3.40;99.90;;;;;;5091458;28;19912;-68
2023/03/11 03:42:17;;;;;;;;;;;3.40;99.90;;;;;;5078578;28;19967;-68
2023/03/11 03:44:43;;;;;;;;;;;3.50;99.90;;;;;;5070998;28;19920;-68
2023/03/11 03:47:08;;;;;;;;;;;3.50;99.90;;;;;;5105014;27;19916;-68
2023/03/11 03:49:34;;;;;;;;;;;3.50;99.90;;;;;;5071074;28;19917;-68
2023/03/11 03:51:59;;;;;;;;;;;3.50;99.90;;;;;;5070761;28;19912;-68
2023/03/11 03:54:25;;;;;;;;;;;3.50;99.90;;;;;;5103153;28;19973;-68
2023/03/11 03:56:50;;;;;;;;;;;3.40;99.90;;;;;;5111378;28;19918;-68
2023/03/11 03:59:15;;;;;;;;;;;3.50;99.90;;;;;;5111810;27;20340;-68
2023/03/11 04:01:41;;;;;;;;;;;3.40;99.90;;;;;;5111067;28;19916;-68
2023/03/11 04:04:07;;;;;;;;;;;3.40;99.90;;;;;;5111466;28;19933;-68
2023/03/11 04:06:32;;;;;;;;;;;3.40;99.90;;;;;;5111659;28;20588;-68
2023/03/11 04:08:58;;;;;;;;;;;3.40;99.90;;;;;;5105440;28;19931;-68
2023/03/11 04:11:24;;;;;;;;;;;3.40;99.90;;;;;;5085168;28;19939;-68
2023/03/11 04:13:49;;;;;;;;;;;3.40;99.90;;;;;;5072683;28;20587;-68
2023/03/11 04:16:19;;;;;;;;;;;3.40;99.90;;;;;;5070714;28;20011;-68
2023/03/11 04:18:45;;;;;;;;;;;3.40;99.90;;;;;;5085034;28;19932;-68
2023/03/11 04:21:10;;;;;;;;;;;3.40;99.90;;;;;;5088149;28;20373;-69
2023/03/11 04:23:36;;;;;;;;;;;3.40;99.90;;;;;;5098624;28;19964;-68
2023/03/11 04:26:01;;;;;;;;;;;3.40;99.90;;;;;;5109864;28;19952;-68
2023/03/11 04:28:27;;;;;;;;;;;3.40;99.90;;;;;;5109835;28;19916;-68
2023/03/11 04:30:52;;;;;;;;;;;3.40;99.90;;;;;;5108360;28;19911;-68
2023/03/11 04:33:18;;;;;;;;;;;3.40;99.90;;;;;;5108446;28;19912;-68
2023/03/11 04:35:43;;;;;;;;;;;3.40;99.90;;;;;;5096803;28;19923;-68
2023/03/11 04:38:09;;;;;;;;;;;3.40;99.90;;;;;;5084828;28;20657;-68
2023/03/11 04:40:35;;;;;;;;;;;3.40;99.90;;;;;;5100068;28;19912;-69
2023/03/11 04:43:01;;;;;;;;;;;3.40;99.90;;;;;;5098492;28;20399;-68
2023/03/11 04:45:26;;;;;;;;;;;3.40;99.90;;;;;;5089062;28;19912;-68
2023/03/11 04:47:52;;;;;;;;;;;3.40;99.90;;;;;;5087828;28;19927;-68
2023/03/11 04:50:18;;;;;;;;;;;3.40;99.90;;;;;;5090791;28;19919;-68
2023/03/11 04:52:44;;;;;;;;;;;3.40;99.90;;;;;;5099620;28;19952;-68
2023/03/11 04:55:09;;;;;;;;;;;3.40;99.90;;;;;;5092292;28;19915;-68
2023/03/11 04:57:35;;;;;;;;;;;3.40;99.90;;;;;;5087614;28;19957;-68
2023/03/11 05:00:00;;;;;;;;;;;3.40;99.90;;;;;;5089010;28;19999;-68
2023/03/11 05:02:26;;;;;;;;;;;3.40;99.90;;;;;;5089146;28;19912;-68
2023/03/11 05:04:52;;;;;;;;;;;3.40;99.90;;;;;;5088405;28;19912;-68
2023/03/11 05:07:17;;;;;;;;;;;3.40;99.90;;;;;;5088999;28;19919;-68
2023/03/11 05:09:43;;;;;;;;;;;3.40;99.90;;;;;;5089806;28;19920;-68
2023/03/11 05:12:10;;;;;;;;;;;3.40;99.90;;;;;;5076884;28;20550;-68
2023/03/11 05:14:36;;;;;;;;;;;3.30;99.90;;;;;;5068610;28;20628;-68
2023/03/11 05:17:01;;;;;;;;;;;3.30;99.90;;;;;;5005639;28;1801856;-68
2023/03/11 05:19:30;;;;;;;;;;;3.30;99.90;;;;;;5075516;28;19935;-68
2023/03/11 05:21:56;;;;;;;;;;;3.30;99.90;;;;;;5089342;28;19919;-69
2023/03/11 05:24:21;;;;;;;;;;;3.30;99.90;;;;;;5104112;28;19908;-68
2023/03/11 05:26:47;;;;;;;;;;;3.30;99.90;;;;;;5094874;28;19957;-69
2023/03/11 05:29:12;;;;;;;;;;;3.30;99.90;;;;;;5089446;28;20033;-68
2023/03/11 05:31:38;;;;;;;;;;;3.30;99.90;;;;;;5089583;28;19947;-69
2023/03/11 05:34:03;;;;;;;;;;;3.30;99.90;;;;;;5089222;28;19918;-68
2023/03/11 05:36:29;;;;;;;;;;;3.30;99.90;;;;;;5089268;28;19918;-68
2023/03/11 05:38:54;;;;;;;;;;;3.30;99.90;;;;;;5088872;28;19919;-69
2023/03/11 05:41:20;;;;;;;;;;;3.30;99.90;;;;;;5083121;28;20336;-68
2023/03/11 05:43:45;;;;;;;;;;;3.30;99.90;;;;;;5086667;28;19957;-69
2023/03/11 05:46:11;;;;;;;;;;;3.30;99.90;;;;;;5088442;28;20010;-68
2023/03/11 05:48:37;;;;;;;;;;;3.30;99.90;;;;;;5086003;28;19923;-68
2023/03/11 05:51:07;;;;;;;;;;;3.30;99.90;;;;;;5081056;28;19944;-68
2023/03/11 05:53:32;;;;;;;;;;;3.20;99.90;;;;;;5083848;28;19919;-68
2023/03/11 05:55:59;;;;;;;;;;;3.20;99.90;;;;;;5108495;28;19979;-68
2023/03/11 05:58:24;;;;;;;;;;;3.20;99.90;;;;;;5108544;28;19920;-68
2023/03/11 06:00:50;;;;;;;;;;;3.20;99.90;;;;;;5091707;28;20612;-68
2023/03/11 06:03:15;;;;;;;;;;;3.20;99.90;;;;;;5087767;28;19924;-68
2023/03/11 06:05:47;;;;;;;;;;;3.20;99.90;;;;;;5087889;28;19919;-68
2023/03/11 06:08:13;;;;;;;;;;;3.20;99.90;;;;;;5088054;28;19915;-68
2023/03/11 06:10:38;;;;;;;;;;;3.30;99.90;;;;;;5087866;28;20007;-68
2023/03/11 06:13:04;;;;;;;;;;;3.20;99.90;;;;;;5068224;28;19966;-68
2023/03/11 06:15:32;;;;;;;;;;;3.30;99.90;;;;;;5069706;28;19908;-68
2023/03/11 06:17:58;;;;;;;;;;;3.20;99.90;;;;;;5088827;28;19920;-68
2023/03/11 06:20:24;;;;;;;;;;;3.20;99.90;;;;;;5086984;28;20024;-68
2023/03/11 06:22:49;;;;;;;;;;;3.20;99.90;;;;;;5089606;28;20021;-68
2023/03/11 06:25:15;;;;;;;;;;;3.20;99.90;;;;;;5107594;28;19923;-68
2023/03/11 06:27:40;;;;;;;;;;;3.20;99.90;;;;;;5107916;28;19971;-68
2023/03/11 06:30:06;;;;;;;;;;;3.20;99.90;;;;;;5107946;28;19912;-68
2023/03/11 06:32:33;;;;;;;;;;;3.20;99.90;;;;;;5091212;28;19970;-68
2023/03/11 06:34:59;;;;;;;;;;;3.20;99.90;;;;;;5087078;28;19912;-68
2023/03/11 06:37:24;;;;;;;;;;;3.20;99.90;;;;;;5087495;28;19913;-68
2023/03/11 06:39:53;;;;;;;;;;;3.20;99.90;;;;;;5087005;28;19989;-68
2023/03/11 06:42:19;;;;;;;;;;;3.20;99.90;;;;;;5073903;28;19912;-68
2023/03/11 06:44:47;;;;;;;;;;;3.20;99.90;;;;;;5066915;28;19920;-68
2023/03/11 06:47:12;;;;;;;;;;;3.20;99.90;;;;;;5067479;28;19995;-68
2023/03/11 06:49:39;;;;;;;;;;;3.20;99.90;;;;;;5076447;28;20463;-68
2023/03/11 06:52:05;;;;;;;;;;;3.20;99.90;;;;;;5087157;28;19995;-68
2023/03/11 06:54:31;;;;;;;;;;;3.20;99.90;;;;;;5103168;28;20008;-68
2023/03/11 06:56:56;;;;;;;;;;;3.20;99.90;;;;;;5107608;28;19943;-68
2023/03/11 06:59:22;;;;;;;;;;;3.20;99.90;;;;;;5107367;28;19963;-68
2023/03/11 07:01:47;;;;;;;;;;;3.20;99.90;;;;;;5090600;28;19912;-69
2023/03/11 07:04:13;;;;;;;;;;;3.20;99.90;;;;;;5087053;28;19912;-68
2023/03/11 07:06:40;;;;;;;;;;;3.20;99.90;;;;;;5088259;28;19923;-68
2023/03/11 07:09:05;;;;;;;;;;;3.20;99.90;;;;;;5086967;28;20621;-68
2023/03/11 07:11:31;;;;;;;;;;;3.20;99.90;;;;;;5080259;28;19919;-68
2023/03/11 07:13:56;;;;;;;;;;;3.20;99.90;;;;;;5065297;28;19915;-68
2023/03/11 07:16:23;;;;;;;;;;;3.20;99.90;;;;;;5066931;28;19915;-69
2023/03/11 07:18:49;;;;;;;;;;;3.10;99.90;;;;;;5067508;28;19921;-68
2023/03/11 07:21:17;;;;;;;;;;;3.20;99.90;;;;;;5086272;28;20356;-68
2023/03/11 07:23:42;;;;;;;;;;;3.10;99.90;;;;;;5096249;28;19988;-68
2023/03/11 07:26:12;;;;;;;;;;;3.20;99.90;;;;;;5107271;28;20375;-69
2023/03/11 07:28:38;;;;;;;;;;;3.20;99.90;;;;;;5107100;28;19912;-69
2023/03/11 07:31:10;;;;;;;;;;;3.20;99.90;;;;;;5107356;28;20629;-68
2023/03/11 07:33:37;;;;;;;;;;;3.20;99.90;;;;;;5106944;28;19919;-69
2023/03/11 07:36:16;;;;;;;;;;;3.20;99.90;;;;;;5099618;28;19998;-69
2023/03/11 07:38:42;;;;;;;;;;;3.20;99.90;;;;;;5090881;28;19916;-69
2023/03/11 07:41:09;;;;;;;;;;;3.20;99.90;;;;;;5084151;28;19919;-69
2023/03/11 07:43:35;;;;;;;;;;;3.20;99.90;;;;;;5066645;28;19913;-68
2023/03/11 07:46:11;;;;;;;;;;;3.20;99.90;;;;;;5066673;28;19939;-69
2023/03/11 07:48:37;;;;;;;;;;;3.20;99.90;;;;;;5066692;28;19924;-69
2023/03/11 07:51:03;;;;;;;;;;;3.20;99.90;;;;;;5066006;28;19912;-69
2023/03/11 07:53:28;;;;;;;;;;;3.20;99.90;;;;;;5081352;28;19912;-69
2023/03/11 07:55:54;;;;;;;;;;;3.20;99.90;;;;;;5106975;28;20418;-69
2023/03/11 07:58:20;;;;;;;;;;;3.20;99.90;;;;;;5090013;28;20430;-69
2023/03/11 08:00:45;;;;;;;;;;;3.20;99.90;;;;;;5086574;28;19912;-69
2023/03/11 08:03:11;;;;;;;;;;;3.20;99.90;;;;;;5084798;28;19935;-69
2023/03/11 08:05:36;;;;;;;;;;;3.20;99.90;;;;;;5086365;28;20467;-69
2023/03/11 08:08:02;;;;;;;;;;;3.20;99.90;;;;;;5086159;28;20027;-69
2023/03/11 08:10:28;;;;;;;;;;;3.30;99.90;;;;;;5086721;28;19985;-69
2023/03/11 08:12:53;;;;;;;;;;;3.20;99.90;;;;;;5072524;28;19915;-69
2023/03/11 08:15:19;;;;;;;;;;;3.20;99.90;;;;;;5110509;28;19916;-69
2023/03/11 08:17:44;;;;;;;;;;;3.20;99.90;;;;;;5111416;28;19930;-69
2023/03/11 08:20:10;;;;;;;;;;;3.20;99.90;;;;;;5103363;28;19935;-69
2023/03/11 08:22:35;;;;;;;;;;;3.20;99.90;;;;;;5099169;28;19911;-69
2023/03/11 08:25:01;;;;;;;;;;;3.20;99.90;;;;;;5099757;28;19916;-69
2023/03/11 08:27:27;;;;;;;;;;;3.20;99.90;;;;;;5096080;28;19995;-69
2023/03/11 08:29:53;;;;;;;;;;;3.30;99.90;;;;;;5093051;28;19920;-69
2023/03/11 08:32:18;;;;;;;;;;;3.30;99.90;;;;;;5111107;28;20508;-69
2023/03/11 08:34:44;;;;;;;;;;;3.30;99.90;;;;;;5094782;28;20377;-69
2023/03/11 08:37:09;;;;;;;;;;;3.40;99.90;;;;;;5090653;28;19912;-69
2023/03/11 08:39:35;;;;;;;;;;;3.40;99.90;;;;;;5095863;28;20426;-68
2023/03/11 08:42:01;;;;;;;;;;;3.50;99.90;;;;;;5098049;28;19950;-69
2023/03/11 08:44:27;;;;;;;;;;;3.50;99.90;;;;;;5102307;28;20011;-69
2023/03/11 08:46:53;;;;;;;;;;;3.60;99.90;;;;;;5101437;28;20003;-68
2023/03/11 08:49:18;;;;;;;;;;;3.60;99.90;;;;;;5099860;28;19919;-69
2023/03/11 08:51:44;;;;;;;;;;;3.70;99.90;;;;;;5099724;28;19912;-68
2023/03/11 08:54:09;;;;;;;;;;;3.70;99.90;;;;;;5102035;28;19919;-68
2023/03/11 08:56:35;;;;;;;;;;;3.70;99.90;;;;;;5095312;28;20281;-69
2023/03/11 08:59:00;;;;;;;;;;;3.80;99.90;;;;;;5089968;28;19916;-68
2023/03/11 09:01:28;;;;;;;;;;;3.80;99.90;;;;;;5108260;28;19916;-69
2023/03/11 09:03:53;;;;;;;;;;;3.90;99.90;;;;;;5109170;28;19972;-69
2023/03/11 09:06:19;;;;;;;;;;;3.90;99.90;;;;;;5110238;28;19916;-69
2023/03/11 09:08:45;;;;;;;;;;;3.90;99.90;;;;;;5099641;27;19924;-69
2023/03/11 09:11:12;;;;;;;;;;;3.90;99.90;;;;;;5085845;28;19952;-69
2023/03/11 09:13:39;;;;;;;;;;;3.90;99.90;;;;;;5071262;28;20639;-69
2023/03/11 09:16:06;;;;;;;;;;;3.90;99.90;;;;;;5099980;28;19947;-69
2023/03/11 09:18:31;;;;;;;;;;;3.90;99.90;;;;;;5098877;28;19920;-69
2023/03/11 09:20:59;;;;;;;;;;;3.90;99.90;;;;;;5098094;28;19912;-69
2023/03/11 09:23:24;;;;;;;;;;;3.90;99.90;;;;;;5095259;28;19912;-69
2023/03/11 09:25:50;;;;;;;;;;;3.90;99.90;;;;;;5108418;28;20009;-69
2023/03/11 09:28:16;;;;;;;;;;;3.90;99.90;;;;;;5099921;28;19916;-69
2023/03/11 09:30:41;;;;;;;;;;;3.90;99.90;;;;;;5096072;28;19919;-69
2023/03/11 09:33:07;;;;;;;;;;;3.90;99.90;;;;;;5098262;28;20444;-68
2023/03/11 09:35:33;;;;;;;;;;;3.90;99.90;;;;;;5099246;28;19912;-69
2023/03/11 09:37:58;;;;;;;;;;;3.90;99.90;;;;;;5099928;28;19995;-69
2023/03/11 09:40:25;;;;;;;;;;;4.00;99.90;;;;;;5099683;28;20348;-68
2023/03/11 09:43:13;;;;;;;;;;;4.00;99.90;;;;;;5099833;28;19919;-69
2023/03/11 09:45:44;;;;;;;;;;;4.00;99.90;;;;;;5098557;28;19954;-68
2023/03/11 09:48:20;;;;;;;;;;;4.00;99.90;;;;;;5096081;28;19955;-68
2023/03/11 09:51:01;;;;;;;;;;;4.00;99.90;;;;;;5096615;28;19993;-68
2023/03/11 09:53:32;;;;;;;;;;;4.00;99.90;;;;;;5101947;28;19911;-68
2023/03/11 09:55:58;;;;;;;;;;;4.10;99.90;;;;;;5108884;28;19919;-68
2023/03/11 09:58:24;;;;;;;;;;;4.10;99.90;;;;;;5107986;28;19915;-68
2023/03/11 10:00:51;;;;;;;;;;;4.10;99.90;;;;;;5099430;28;19916;-68
2023/03/11 10:03:27;;;;;;;;;;;4.10;99.90;;;;;;5098550;28;19912;-68
2023/03/11 10:05:54;;;;;;;;;;;4.10;99.90;;;;;;5097183;28;19916;-68
2023/03/11 10:08:33;;;;;;;;;;;4.10;99.90;;;;;;5097759;28;19945;-68
2023/03/11 10:11:21;;;;;;;;;;;4.10;99.90;;;;;;5096083;28;20349;-68
2023/03/11 10:14:02;;;;;;;;;;;4.10;99.90;;;;;;5091739;27;19934;-68
2023/03/11 10:16:33;;;;;;;;;;;4.10;99.90;;;;;;5095906;28;19909;-68
2023/03/11 10:18:59;;;;;;;;;;;4.10;99.90;;;;;;5097144;28;20367;-68
2023/03/11 10:21:34;;;;;;;;;;;4.20;99.90;;;;;;5088338;28;19912;-68
2023/03/11 10:24:03;;;;;;;;;;;4.20;99.90;;;;;;5087728;28;19920;-68
2023/03/11 10:26:32;;;;;;;;;;;4.20;99.90;;;;;;5077684;28;19916;-68
2023/03/11 10:29:13;;;;;;;;;;;4.30;99.90;;;;;;5087803;28;19912;-68
2023/03/11 10:31:45;;;;;;;;;;;4.30;99.90;;;;;;5089698;28;20476;-68
2023/03/11 10:34:33;;;;;;;;;;;4.30;99.90;;;;;;5094838;28;20296;-68
2023/03/11 10:37:09;;;;;;;;;;;4.30;99.90;;;;;;5106970;28;20040;-68
2023/03/11 10:39:35;;;;;;;;;;;4.30;99.90;;;;;;5095682;28;19916;-68
2023/03/11 10:42:02;;;;;;;;;;;4.40;99.90;;;;;;5080710;28;20294;-68
2023/03/11 10:44:30;;;;;;;;;;;4.40;99.90;;;;;;5092996;28;19946;-68
2023/03/11 10:46:56;;;;;;;;;;;4.40;99.90;;;;;;5090826;28;19912;-68
2023/03/11 10:49:21;;;;;;;;;;;4.40;99.90;;;;;;5086395;28;19918;-68
2023/03/11 10:51:49;;;;;;;;;;;4.50;99.90;;;;;;5087549;28;19942;-68
2023/03/11 10:54:27;;;;;;;;;;;4.50;99.90;;;;;;5111162;27;20395;-68
2023/03/11 10:57:03;;;;;;;;;;;4.50;99.90;;;;;;5107807;28;19988;-68
2023/03/11 10:59:30;;;;;;;;;;;4.50;99.90;;;;;;5107404;28;20388;-68
2023/03/11 11:01:59;;;;;;;;;;;4.50;99.90;;;;;;5107911;28;20280;-68
2023/03/11 11:04:36;;;;;;;;;;;4.50;99.90;;;;;;5098079;28;19950;-68
2023/03/11 11:07:20;;;;;;;;;;;4.60;99.90;;;;;;5096540;28;20002;-68
2023/03/11 11:09:46;;;;;;;;;;;4.60;99.90;;;;;;5094900;27;19963;-69
2023/03/11 11:12:17;;;;;;;;;;;4.70;99.90;;;;;;5074980;28;19948;-69
2023/03/11 11:14:50;;;;;;;;;;;4.70;99.80;;;;;;5067114;28;19916;-68
2023/03/11 11:17:31;;;;;;;;;;;4.70;99.80;;;;;;5067455;28;20050;-68
2023/03/11 11:19:58;;;;;;;;;;;4.70;99.80;;;;;;5072678;28;19908;-68
2023/03/11 11:22:24;;;;;;;;;;;4.80;99.80;;;;;;5093350;28;19916;-68
2023/03/11 11:24:51;;;;;;;;;;;4.80;99.60;;;;;;5103208;28;19918;-68
2023/03/11 11:27:21;;;;;;;;;;;4.80;99.80;;;;;;5078635;28;19912;-68
2023/03/11 11:30:00;;;;;;;;;;;4.80;99.90;;;;;;5086908;28;19916;-68
2023/03/11 11:32:26;;;;;;;;;;;4.70;99.90;;;;;;5087055;28;19912;-68
2023/03/11 11:34:53;;;;;;;;;;;4.70;99.90;;;;;;5091071;28;19918;-68
2023/03/11 11:37:19;;;;;;;;;;;4.80;99.90;;;;;;5107667;28;19912;-68
2023/03/11 11:39:57;;;;;;;;;;;4.70;99.90;;;;;;5095032;28;19912;-68
2023/03/11 11:42:24;;;;;;;;;;;4.70;99.90;;;;;;5087286;28;19947;-68
2023/03/11 11:44:59;;;;;;;;;;;4.80;99.90;;;;;;5087048;28;19912;-68
2023/03/11 11:47:34;;;;;;;;;;;4.90;99.90;;;;;;5090444;28;19934;-68
2023/03/11 11:50:03;;;;;;;;;;;4.90;99.80;;;;;;5103890;28;20508;-68
2023/03/11 11:52:31;;;;;;;;;;;5.00;99.80;;;;;;5073876;28;19918;-68
2023/03/11 11:55:02;;;;;;;;;;;5.10;99.60;;;;;;5110374;28;19911;-68
2023/03/11 11:57:28;;;;;;;;;;;5.20;99.50;;;;;;5111793;28;19911;-68
2023/03/11 11:59:53;;;;;;;;;;;5.30;99.20;;;;;;5111368;28;19907;-68
2023/03/11 12:02:30;;;;;;;;;;;5.40;99.20;;;;;;5111574;28;19912;-68
2023/03/11 12:05:02;;;;;;;;;;;5.50;99.10;;;;;;5110410;28;20601;-68
2023/03/11 12:07:52;;;;;;;;;;;5.50;98.90;;;;;;5110978;28;19919;-68
2023/03/11 12:10:17;;;;;;;;;;;5.50;99.00;;;;;;5096594;28;19918;-68
2023/03/11 12:13:04;;;;;;;;;;;5.60;99.00;;;;;;5092803;28;20300;-68
2023/03/11 12:15:37;;;;;;;;;;;5.70;98.90;;;;;;5088738;28;19912;-68
2023/03/11 12:18:07;;;;;;;;;;;5.70;99.00;;;;;;5101451;28;19919;-69
2023/03/11 12:20:38;;;;;;;;;;;5.70;98.90;;;;;;5085214;28;19912;-68
2023/03/11 12:23:07;;;;;;;;;;;5.70;98.90;;;;;;5094908;28;19908;-69
2023/03/11 12:25:35;;;;;;;;;;;5.70;98.90;;;;;;5110686;28;19915;-69
2023/03/11 12:28:16;;;;;;;;;;;5.70;98.90;;;;;;5109886;28;20045;-69
2023/03/11 12:30:44;;;;;;;;;;;5.70;98.90;;;;;;5098097;28;19912;-69
2023/03/11 12:33:12;;;;;;;;;;;5.70;98.90;;;;;;5097198;28;19955;-69
2023/03/11 12:35:38;;;;;;;;;;;5.60;99.10;;;;;;5090263;28;19955;-69
2023/03/11 12:38:17;;;;;;;;;;;5.70;99.20;;;;;;5090724;28;19936;-69
2023/03/11 12:40:42;;;;;;;;;;;5.70;99.00;;;;;;5083199;28;19908;-69
2023/03/11 12:43:25;;;;;;;;;;;5.70;98.90;;;;;;5088921;28;19958;-69
2023/03/11 12:45:51;;;;;;;;;;;5.70;98.70;;;;;;5095093;28;19951;-70
2023/03/11 12:48:23;;;;;;;;;;;5.80;98.50;;;;;;5092365;28;19997;-69
2023/03/11 12:50:49;;;;;;;;;;;5.90;98.50;;;;;;5088417;28;19912;-69
2023/03/11 12:53:16;;;;;;;;;;;6.00;98.30;;;;;;5095777;28;19916;-69
2023/03/11 12:56:00;;;;;;;;;;;6.00;98.40;;;;;;5110373;28;20380;-69
2023/03/11 12:58:31;;;;;;;;;;;6.10;98.30;;;;;;5110631;28;20002;-69
2023/03/11 13:00:56;;;;;;;;;;;6.20;98.20;;;;;;5110068;27;19915;-69
2023/03/11 13:03:22;;;;;;;;;;;6.30;98.10;;;;;;5110275;28;19911;-69
2023/03/11 13:06:06;;;;;;;;;;;6.40;98.30;;;;;;5108432;28;19916;-70
2023/03/11 13:08:31;;;;;;;;;;;6.40;98.20;;;;;;5098033;28;19961;-69
2023/03/11 13:10:57;;;;;;;;;;;6.40;97.90;;;;;;5097814;28;19944;-69
2023/03/11 13:13:37;;;;;;;;;;;6.50;98.10;;;;;;5089301;28;19919;-69
2023/03/11 13:16:15;;;;;;;;;;;6.60;98.00;;;;;;5073275;28;19916;-70
2023/03/11 13:18:42;;;;;;;;;;;6.60;98.10;;;;;;5084351;28;20405;-69
2023/03/11 13:21:26;;;;;;;;;;;6.70;98.10;;;;;;5087805;28;19908;-69
2023/03/11 13:23:51;;;;;;;;;;;6.70;98.20;;;;;;5100082;28;20376;-69
2023/03/11 13:26:36;;;;;;;;;;;6.80;98.20;;;;;;5089476;28;19909;-70
2023/03/11 13:29:13;;;;;;;;;;;6.90;98.00;;;;;;5088489;28;20446;-70
2023/03/11 13:31:57;;;;;;;;;;;6.90;98.00;;;;;;5125318;27;20335;-70
2023/03/11 13:34:43;;;;;;;;;;;7.00;98.10;;;;;;5093837;28;20505;-70
2023/03/11 13:37:09;;;;;;;;;;;7.10;98.10;;;;;;5109777;28;19912;-70
2023/03/11 13:39:56;;;;;;;;;;;7.10;97.90;;;;;;5098423;28;19954;-70
2023/03/11 13:42:24;;;;;;;;;;;7.10;97.90;;;;;;5086118;28;19916;-70
2023/03/11 13:44:51;;;;;;;;;;;7.20;98.00;;;;;;5092315;28;19920;-70
2023/03/11 13:47:17;;;;;;;;;;;7.20;97.90;;;;;;5089460;28;20502;-70
2023/03/11 13:49:43;;;;;;;;;;;7.30;97.90;;;;;;5089148;28;19916;-70
2023/03/11 13:52:13;;;;;;;;;;;7.30;97.90;;;;;;5072811;28;19919;-71
2023/03/11 13:54:38;;;;;;;;;;;7.30;97.90;;;;;;5096534;28;19912;-70
2023/03/11 13:57:04;;;;;;;;;;;7.40;98.20;;;;;;5105746;28;19922;-70
2023/03/11 13:59:33;;;;;;;;;;;7.40;98.10;;;;;;5108912;28;20029;-70
2023/03/11 14:01:59;;;;;;;;;;;7.40;98.00;;;;;;5109054;28;20010;-71
2023/03/11 14:04:29;;;;;;;;;;;7.50;98.00;;;;;;5107978;28;20006;-70
2023/03/11 14:06:54;;;;;;;;;;;7.50;98.10;;;;;;5107990;28;19915;-70
2023/03/11 14:09:20;;;;;;;;;;;7.50;98.30;;;;;;5098594;28;19939;-70
2023/03/11 14:11:47;;;;;;;;;;;7.50;98.70;;;;;;5093715;28;19920;-70
2023/03/11 14:14:47;;;;;;;;;;;7.50;98.50;;;;;;5085974;28;20481;-71
2023/03/11 14:17:15;;;;;;;;;;;7.50;98.60;;;;;;5075724;28;19924;-71
2023/03/11 14:19:41;;;;;;;;;;;7.60;98.90;;;;;;5085061;28;19913;-72
2023/03/11 14:22:07;;;;;;;;;;;7.60;98.90;;;;;;5085943;28;19912;-70
2023/03/11 14:24:32;;;;;;;;;;;7.60;99.20;;;;;;5104062;28;20441;-70
2023/03/11 14:27:00;;;;;;;;;;;7.60;99.10;;;;;;5108594;28;19950;-70
2023/03/11 14:29:33;;;;;;;;;;;7.60;99.20;;;;;;5108534;28;20028;-71
2023/03/11 14:31:58;;;;;;;;;;;7.60;99.00;;;;;;5108572;28;19939;-71
2023/03/11 14:34:26;;;;;;;;;;;7.60;98.80;;;;;;5106749;28;20599;-70
2023/03/11 14:36:54;;;;;;;;;;;7.60;98.90;;;;;;5106928;28;19912;-70